Latest Coastal Weather Observations for Flinders Reef

IDQ60701

Issued at 4:12 pm EST Saturday 24 February 2018 (issued every 10 minutes, with the page automatically refreshed every 10 minutes)

About coastal observations | Map of coastal stations | Coastal observations for QLD | Marine services | Other Formats
Station Details ID: 200783 Name: FLINDERS REEF Lat: -17.72 Lon: 148.45 Height: 2.6 m
Data from the previous 72 hours. | See also: Recent months at Flinders Reef
Date/Time
EST
Temp
°C
Wind Pressure Rain since
9am
mm
Weather Cloud Vis
km
Sea
Height
m
Swell
Dir  Spd
kts
Gust
kts
hPa Trend Height
m
Period
s
Dir
24/04:00pm 28.0 NE 15 17 1008.7 - - - - - - - - -
24/03:30pm 28.0 NE 14 17 1008.8 - - - - - - - - -
24/03:24pm 28.0 NE 14 - 1008.7 - - - - - - - - -
24/03:00pm 27.8 NE 14 16 1008.8 - - - - - - - - -
24/02:30pm 26.2 E 12 17 1008.6 - - - - - - - - -
24/02:24pm 25.8 ENE 12 - 1008.4 - - - - - - - - -
24/02:00pm 25.5 ENE 14 19 1008.6 - - - - - - - - -
24/01:48pm 25.0 NE 18 22 1008.6 - - - - - - - - -
24/01:30pm 24.9 NNE 22 26 1008.7 - - - - - - - - -
24/01:28pm 25.7 NNE 22 26 1008.8 - - - - - - - - -
24/01:24pm 27.9 ENE 17 - 1008.4 - - - - - - - - -
24/01:00pm 28.1 ENE 15 17 1008.9 - - - - - - - - -
24/12:30pm 28.2 ENE 15 17 1009.7 - - - - - - - - -
24/12:24pm 28.2 ENE 16 - 1009.7 - - - - - - - - -
24/12:00pm 28.2 ENE 17 19 1010.2 - - - - - - - - -
24/11:30am 28.4 ENE 17 19 1010.0 - - - - - - - - -
24/11:24am 28.4 ENE 16 - 1010.0 - - - - - - - - -
24/11:00am 28.3 ENE 17 19 1010.0 - - - - - - - - -
24/10:30am 28.1 ENE 16 18 1010.5 - - - - - - - - -
24/10:24am 28.1 ENE 16 - 1010.5 - - - - - - - - -
24/10:00am 28.1 ENE 15 17 1010.8 - - - - - - - - -
24/09:30am 27.9 ENE 13 15 1011.0 - - - - - - - - -
24/09:24am 27.8 ENE 13 - 1011.0 - - - - - - - - -
24/09:00am 27.7 ENE 14 16 1011.3 - - - - - - - - -
24/08:30am 27.6 NE 14 16 1011.2 - - - - - - - - -
24/08:24am 27.5 NE 13 - 1011.0 - - - - - - - - -
24/08:00am 27.6 ENE 13 16 1011.0 - - - - - - - - -
24/07:30am 27.6 ENE 15 17 1010.4 - - - - - - - - -
24/07:24am 27.5 NE 14 - 1010.1 - - - - - - - - -
24/07:00am 27.4 NE 15 17 1009.5 - - - - - - - - -
24/06:30am 27.0 NE 16 18 1008.8 - - - - - - - - -
24/06:24am 26.9 NE 16 - 1008.7 - - - - - - - - -
24/06:00am 26.9 NE 16 18 1008.9 - - - - - - - - -
24/05:30am 26.8 NE 16 18 1008.8 - - - - - - - - -
24/05:24am 26.9 NE 15 - 1008.7 - - - - - - - - -
24/05:00am 26.5 NE 16 18 1008.6 - - - - - - - - -
24/04:30am 26.2 NE 19 22 1008.8 - - - - - - - - -
24/04:24am 26.4 NE 20 - 1008.7 - - - - - - - - -
24/04:00am 26.5 NE 18 21 1008.4 - - - - - - - - -
24/03:30am 26.5 NNE 22 25 1008.5 - - - - - - - - -
24/03:24am 26.3 NNE 22 - 1008.5 - - - - - - - - -
24/03:00am 27.7 NE 17 19 1008.7 - - - - - - - - -
24/02:30am 28.3 N 11 12 1008.6 - - - - - - - - -
24/02:24am 28.2 N 11 - 1008.6 - - - - - - - - -
24/02:00am 28.3 N 8 9 1008.6 - - - - - - - - -
24/01:30am 28.4 NNE 10 11 1009.0 - - - - - - - - -
24/01:24am 28.5 NNE 9 - 1009.0 - - - - - - - - -
24/01:00am 28.4 NNE 9 10 1009.4 - - - - - - - - -
24/12:30am 28.5 NNE 9 10 1009.2 - - - - - - - - -
24/12:24am 28.5 NNE 9 - 1009.2 - - - - - - - - -
24/12:00am 28.5 NNE 10 12 1009.7 - - - - - - - - -
 
Date/Time
EST
Temp
°C
Wind Pressure Rain since
9am
mm
Weather Cloud Vis
km
Sea
Height
m
Swell
Dir  Spd
kts
Gust
kts
hPa Trend Height
m
Period
s
Dir
23/11:30pm 28.6 N 9 11 1009.9 - - - - - - - - -
23/11:24pm 28.6 NNE 9 - 1009.9 - - - - - - - - -
23/11:00pm 28.7 NNE 10 11 1010.3 - - - - - - - - -
23/10:30pm 28.5 NE 11 12 1010.2 - - - - - - - - -
23/10:24pm 28.5 NE 11 - 1010.0 - - - - - - - - -
23/10:00pm 28.6 NE 11 12 1010.2 - - - - - - - - -
23/09:30pm 28.6 NE 10 11 1009.9 - - - - - - - - -
23/09:24pm 28.6 NE 9 - 1009.7 - - - - - - - - -
23/09:00pm 28.6 NE 11 11 1009.5 - - - - - - - - -
23/08:30pm 28.8 NE 12 13 1009.2 - - - - - - - - -
23/08:24pm 28.7 NE 12 - 1009.2 - - - - - - - - -
23/08:00pm 28.8 NNE 10 12 1009.2 - - - - - - - - -
23/07:30pm 28.8 NNE 9 9 1008.8 - - - - - - - - -
23/07:24pm 28.8 NNE 9 - 1008.7 - - - - - - - - -
23/07:00pm 28.8 NNE 8 9 1008.7 - - - - - - - - -
23/06:30pm 28.9 NNE 10 13 1008.5 - - - - - - - - -
23/06:24pm 28.9 NNE 12 - 1008.2 - - - - - - - - -
23/06:00pm 28.9 NNE 10 11 1008.0 - - - - - - - - -
23/05:30pm 28.6 NNE 2 8 1007.9 - - - - - - - - -
23/05:24pm 28.5 NNE 1 - 1007.8 - - - - - - - - -
23/05:00pm 28.3 NNE 8 10 1007.7 - - - - - - - - -
23/04:30pm 27.9 CALM 0 7 1007.5 - - - - - - - - -
23/04:24pm 27.9 CALM 0 - 1007.4 - - - - - - - - -
23/04:00pm 27.7 ENE 1 4 1007.6 - - - - - - - - -
23/03:30pm 27.4 NNW 15 17 1007.7 - - - - - - - - -
23/03:24pm 28.5 N 12 - 1007.6 - - - - - - - - -
23/03:00pm 29.1 NNE 13 15 1007.4 - - - - - - - - -
23/02:30pm 29.2 N 13 15 1007.5 - - - - - - - - -
23/02:24pm 29.1 N 14 - 1007.3 - - - - - - - - -
23/02:00pm 29.2 N 17 19 1007.6 - - - - - - - - -
23/01:30pm 29.2 N 16 18 1007.7 - - - - - - - - -
23/01:24pm 29.3 N 16 - 1007.7 - - - - - - - - -
23/01:00pm 29.4 N 17 19 1008.3 - - - - - - - - -
23/12:30pm 29.2 NNE 18 21 1008.7 - - - - - - - - -
23/12:24pm 29.3 NNE 18 - 1008.6 - - - - - - - - -
23/12:00pm 29.1 NNE 17 20 1008.7 - - - - - - - - -
23/11:30am 29.1 NNE 16 19 1008.7 - - - - - - - - -
23/11:24am 29.2 NNE 17 - 1008.6 - - - - - - - - -
23/11:00am 29.1 NNE 16 18 1008.9 - - - - - - - - -
23/10:30am 29.0 N 16 19 1009.3 - - - - - - - - -
23/10:24am 29.0 NNE 16 - 1009.2 - - - - - - - - -
23/10:00am 29.1 N 16 18 1009.5 - - - - - - - - -
23/09:30am 29.0 N 17 19 1009.5 - - - - - - - - -
23/09:24am 29.1 N 17 - 1009.4 - - - - - - - - -
23/09:00am 29.0 NNE 18 21 1009.3 - - - - - - - - -
23/08:30am 28.8 NNE 18 21 1009.0 - - - - - - - - -
23/08:24am 28.9 NNE 18 - 1008.9 - - - - - - - - -
23/08:00am 28.9 NNE 19 21 1008.8 - - - - - - - - -
23/07:30am 28.9 NNE 19 21 1008.4 - - - - - - - - -
23/07:24am 28.8 NNE 18 - 1008.4 - - - - - - - - -
23/07:00am 28.5 NNE 19 23 1008.1 - - - - - - - - -
23/06:30am 28.4 NNE 22 25 1007.5 - - - - - - - - -
23/06:24am 28.4 NNE 23 - 1007.3 - - - - - - - - -
23/06:00am 28.2 NE 21 25 1007.1 - - - - - - - - -
23/05:30am 28.1 NNE 20 23 1007.0 - - - - - - - - -
23/05:24am 28.0 NNE 20 - 1006.7 - - - - - - - - -
23/05:00am 27.8 N 18 21 1006.6 - - - - - - - - -
23/04:30am 27.6 NNE 16 18 1006.3 - - - - - - - - -
23/04:24am 27.5 NNE 16 - 1006.2 - - - - - - - - -
23/04:00am 27.7 NNE 15 18 1005.9 - - - - - - - - -
23/03:30am 27.4 N 15 18 1005.9 - - - - - - - - -
23/03:24am 27.5 N 16 - 1005.9 - - - - - - - - -
23/03:00am 27.5 NNE 17 19 1006.2 - - - - - - - - -
23/02:30am 27.5 NNE 17 20 1006.6 - - - - - - - - -
23/02:24am 27.5 NNE 16 - 1006.6 - - - - - - - - -
23/02:00am 27.3 NNE 14 17 1006.9 - - - - - - - - -
23/01:30am 26.9 NNE 14 17 1007.1 - - - - - - - - -
23/01:24am 26.8 NNE 14 - 1006.9 - - - - - - - - -
23/01:00am 26.7 N 11 13 1007.5 - - - - - - - - -
23/12:30am 26.7 N 11 14 1007.8 - - - - - - - - -
23/12:24am 26.8 N 12 - 1007.8 - - - - - - - - -
23/12:00am 27.2 NNE 13 14 1008.0 - - - - - - - - -
 
Date/Time
EST
Temp
°C
Wind Pressure Rain since
9am
mm
Weather Cloud Vis
km
Sea
Height
m
Swell
Dir  Spd
kts
Gust
kts
hPa Trend Height
m
Period
s
Dir
22/11:30pm 27.4 NNE 12 15 1008.0 - - - - - - - - -
22/11:24pm 27.4 NNE 12 - 1008.0 - - - - - - - - -
22/11:00pm 27.2 NE 11 13 1008.3 - - - - - - - - -
22/10:30pm 27.1 NE 11 13 1008.3 - - - - - - - - -
22/10:24pm 26.9 NE 11 - 1008.1 - - - - - - - - -
22/10:00pm 26.6 NE 10 11 1008.2 - - - - - - - - -
22/09:30pm 26.4 NE 9 11 1008.0 - - - - - - - - -
22/09:24pm 26.4 NE 9 - 1008.0 - - - - - - - - -
22/09:00pm 26.1 ENE 8 9 1008.1 - - - - - - - - -
22/08:30pm 26.2 NNE 9 10 1007.8 - - - - - - - - -
22/08:24pm 26.0 NNE 8 - 1007.8 - - - - - - - - -
22/08:00pm 25.6 N 11 14 1007.4 - - - - - - - - -
22/07:30pm 25.9 N 12 15 1007.5 - - - - - - - - -
22/07:24pm 26.2 ENE 8 - 1007.3 - - - - - - - - -
22/07:16pm 26.8 NNE 17 19 1007.0 - - - - - - - - -
22/07:00pm 28.0 ENE 7 8 1006.9 - - - - - - - - -
22/06:30pm 27.9 E 8 9 1006.1 - - - - - - - - -
22/06:24pm 27.9 E 7 - 1005.8 - - - - - - - - -
22/06:00pm 27.9 ENE 6 8 1005.5 - - - - - - - - -
22/05:30pm 28.0 E 5 6 1005.4 - - - - - - - - -
22/05:24pm 28.1 E 5 - 1005.2 - - - - - - - - -
22/05:00pm 28.1 ENE 6 7 1005.4 - - - - - - - - -
22/04:30pm 28.2 N 3 5 1005.3 - - - - - - - - -
22/04:24pm 28.0 N 4 - 1005.2 - - - - - - - - -
22/04:00pm 28.3 N 4 5 1005.4 - - - - - - - - -
22/03:30pm 28.2 N 4 5 1005.3 - - - - - - - - -
22/03:24pm 28.2 N 4 - 1005.2 - - - - - - - - -
22/03:00pm 28.5 E 6 7 1005.5 - - - - - - - - -
22/02:30pm 28.5 E 5 7 1005.7 - - - - - - - - -
22/02:24pm 28.4 E 6 - 1005.7 - - - - - - - - -
22/02:00pm 28.2 E 8 11 1005.8 - - - - - - - - -
22/01:30pm 27.9 E 10 12 1006.0 - - - - - - - - -
22/01:24pm 27.9 E 11 - 1006.0 - - - - - - - - -
22/01:00pm 27.9 E 9 11 1006.2 - - - - - - - - -
22/12:30pm 27.8 E 8 9 1006.4 - - - - - - - - -
22/12:24pm 27.7 E 7 - 1006.4 - - - - - - - - -
22/12:00pm 28.1 E 7 9 1006.7 - - - - - - - - -
22/11:30am 27.8 E 6 9 1006.8 - - - - - - - - -
22/11:24am 27.9 E 7 - 1006.8 - - - - - - - - -
22/11:00am 27.9 E 8 9 1006.7 - - - - - - - - -
22/10:30am 27.5 E 10 11 1006.8 - - - - - - - - -
22/10:24am 27.3 E 10 - 1006.8 - - - - - - - - -
22/10:00am 27.3 E 10 12 1007.0 - - - - - - - - -
22/09:30am 27.2 E 11 13 1007.1 - - - - - - - - -
22/09:24am 27.1 E 10 - 1006.9 - - - - - - - - -
22/09:00am 26.9 E 9 11 1006.9 - - - - - - - - -
22/08:30am 26.8 E 9 11 1006.5 - - - - - - - - -
22/08:24am 26.8 E 10 - 1006.3 - - - - - - - - -
22/08:00am 26.5 E 7 9 1006.0 - - - - - - - - -
22/07:30am 26.2 E 13 15 1005.5 - - - - - - - - -
22/07:24am 26.2 E 14 - 1005.3 - - - - - - - - -
22/07:00am 26.0 E 15 17 1005.1 - - - - - - - - -
22/06:30am 25.8 E 13 15 1005.3 - - - - - - - - -
22/06:24am 25.9 E 12 - 1005.3 - - - - - - - - -
22/06:00am 25.7 E 11 13 1005.3 - - - - - - - - -
22/05:30am 25.3 E 9 11 1005.7 - - - - - - - - -
22/05:24am 25.1 E 9 - 1005.7 - - - - - - - - -
22/05:00am 24.7 E 5 8 1005.9 - - - - - - - - -
22/04:30am 24.8 E 7 8 1006.0 - - - - - - - - -
22/04:24am 24.7 ESE 7 - 1005.8 - - - - - - - - -
22/04:00am 24.9 ESE 11 13 1005.6 - - - - - - - - -
22/03:30am 24.4 E 12 14 1005.3 - - - - - - - - -
22/03:24am 24.5 ESE 12 - 1005.2 - - - - - - - - -
22/03:00am 24.7 SE 12 14 1005.7 - - - - - - - - -
22/02:30am 24.5 ESE 12 14 1005.9 - - - - - - - - -
22/02:24am 24.5 ESE 12 - 1005.8 - - - - - - - - -
22/02:00am 25.0 SE 12 14 1005.9 - - - - - - - - -
22/01:30am 24.7 S 15 17 1005.8 - - - - - - - - -
22/01:24am 24.6 S 15 - 1005.7 - - - - - - - - -
22/01:00am 23.9 S 24 27 1005.7 - - - - - - - - -
22/12:43am 24.1 S 19 29 1006.0 - - - - - - - - -
22/12:30am 22.7 SSW 31 43 1006.3 - - - - - - - - -
22/12:24am 22.4 SSW 32 - 1006.6 - - - - - - - - -
22/12:23am 22.1 SW 33 43 1006.7 - - - - - - - - -
22/12:21am 22.8 SW 32 38 1006.7 - - - - - - - - -
22/12:00am 24.1 WSW 27 37 1007.7 - - - - - - - - -
 
Date/Time
EST
Temp
°C
Wind Pressure Rain since
9am
mm
Weather Cloud Vis
km
Sea
Height
m
Swell
Dir  Spd
kts
Gust
kts
hPa Trend Height
m
Period
s
Dir
21/11:57pm 24.6 WSW 27 37 1007.9 - - - - - - - - -
21/11:55pm 24.8 SW 29 37 1007.5 - - - - - - - - -
21/11:52pm 26.1 S 16 23 1007.2 - - - - - - - - -
21/11:49pm 26.4 SSE 20 23 1006.6 - - - - - - - - -
21/11:30pm 28.6 ESE 15 18 1006.4 - - - - - - - - -
21/11:24pm 28.6 ESE 14 - 1006.4 - - - - - - - - -
21/11:00pm 28.7 E 14 16 1006.3 - - - - - - - - -
21/10:30pm 28.6 E 13 16 1006.2 - - - - - - - - -
21/10:24pm 28.4 E 13 - 1006.0 - - - - - - - - -
21/10:00pm 28.4 E 12 13 1006.0 - - - - - - - - -
21/09:30pm 28.5 E 12 14 1006.1 - - - - - - - - -
21/09:24pm 28.2 E 12 - 1005.9 - - - - - - - - -
21/09:00pm 28.2 E 14 16 1005.2 - - - - - - - - -
21/08:30pm 28.1 ENE 14 16 1004.7 - - - - - - - - -
21/08:24pm 28.1 ENE 14 - 1004.5 - - - - - - - - -
21/08:00pm 28.2 E 13 15 1004.7 - - - - - - - - -
21/07:30pm 28.1 E 11 12 1004.9 - - - - - - - - -
21/07:24pm 28.2 ESE 11 - 1004.8 - - - - - - - - -
21/07:00pm 28.2 ESE 11 13 1004.7 - - - - - - - - -
21/06:30pm 27.8 E 11 13 1004.1 - - - - - - - - -
21/06:24pm 28.0 E 12 - 1003.8 - - - - - - - - -
21/06:00pm 28.3 E 13 15 1003.4 - - - - - - - - -
21/05:30pm 28.1 SE 10 13 1003.6 - - - - - - - - -
21/05:24pm 28.2 SE 10 - 1003.4 - - - - - - - - -
21/05:00pm 28.3 SSE 11 12 1003.5 - - - - - - - - -
21/04:30pm 28.0 SSE 9 11 1003.5 - - - - - - - - -
21/04:24pm 28.1 SSE 10 - 1003.4 - - - - - - - - -

Other Formats:

Comma delimited format used in spreadsheet applications
http://www.bom.gov.au/fwo/IDQ60701/IDQ60701.94290.axf

JavaScript Object Notation format (JSON) in row-major order
http://www.bom.gov.au/fwo/IDQ60701/IDQ60701.94290.json